sensor_id;sensor_type;location;lat;lon;timestamp;temperature;humidity
81222;DHT22;70691;52.492;13.420;2023-11-19T00:00:30;8.50;58.70
81222;DHT22;70691;52.492;13.420;2023-11-19T00:02:56;8.40;58.90
81222;DHT22;70691;52.492;13.420;2023-11-19T00:05:21;8.30;59.70
81222;DHT22;70691;52.492;13.420;2023-11-19T00:07:47;8.40;58.50
81222;DHT22;70691;52.492;13.420;2023-11-19T00:10:14;8.50;58.10
81222;DHT22;70691;52.492;13.420;2023-11-19T00:12:45;8.50;57.70
81222;DHT22;70691;52.492;13.420;2023-11-19T00:15:12;8.60;57.60
81222;DHT22;70691;52.492;13.420;2023-11-19T00:17:38;8.40;58.20
81222;DHT22;70691;52.492;13.420;2023-11-19T00:20:07;8.50;57.50
81222;DHT22;70691;52.492;13.420;2023-11-19T00:22:33;8.40;58.20
81222;DHT22;70691;52.492;13.420;2023-11-19T00:24:59;8.40;57.70
81222;DHT22;70691;52.492;13.420;2023-11-19T00:27:25;8.40;57.80
81222;DHT22;70691;52.492;13.420;2023-11-19T00:29:51;8.20;58.90
81222;DHT22;70691;52.492;13.420;2023-11-19T00:32:17;8.30;58.60
81222;DHT22;70691;52.492;13.420;2023-11-19T00:34:45;8.30;58.20
81222;DHT22;70691;52.492;13.420;2023-11-19T00:37:15;8.30;59.60
81222;DHT22;70691;52.492;13.420;2023-11-19T00:39:42;8.30;58.30
81222;DHT22;70691;52.492;13.420;2023-11-19T00:42:09;8.30;58.30
81222;DHT22;70691;52.492;13.420;2023-11-19T00:44:36;8.40;57.70
81222;DHT22;70691;52.492;13.420;2023-11-19T00:47:02;8.40;57.60
81222;DHT22;70691;52.492;13.420;2023-11-19T00:49:27;8.50;57.10
81222;DHT22;70691;52.492;13.420;2023-11-19T00:51:53;8.50;57.50
81222;DHT22;70691;52.492;13.420;2023-11-19T00:54:19;8.40;57.40
81222;DHT22;70691;52.492;13.420;2023-11-19T00:56:44;8.40;59.20
81222;DHT22;70691;52.492;13.420;2023-11-19T00:59:10;8.40;58.10
81222;DHT22;70691;52.492;13.420;2023-11-19T01:01:36;8.50;57.60
81222;DHT22;70691;52.492;13.420;2023-11-19T01:04:01;8.50;57.20
81222;DHT22;70691;52.492;13.420;2023-11-19T01:06:31;8.50;56.70
81222;DHT22;70691;52.492;13.420;2023-11-19T01:08:57;8.40;57.10
81222;DHT22;70691;52.492;13.420;2023-11-19T01:11:23;8.50;56.70
81222;DHT22;70691;52.492;13.420;2023-11-19T01:13:49;8.50;56.90
81222;DHT22;70691;52.492;13.420;2023-11-19T01:16:15;8.40;57.70
81222;DHT22;70691;52.492;13.420;2023-11-19T01:18:41;8.40;57.40
81222;DHT22;70691;52.492;13.420;2023-11-19T01:21:07;8.40;57.50
81222;DHT22;70691;52.492;13.420;2023-11-19T01:23:34;8.30;57.80
81222;DHT22;70691;52.492;13.420;2023-11-19T01:25:59;8.40;57.30
81222;DHT22;70691;52.492;13.420;2023-11-19T01:28:25;8.40;57.40
81222;DHT22;70691;52.492;13.420;2023-11-19T01:30:51;8.40;57.00
81222;DHT22;70691;52.492;13.420;2023-11-19T01:33:16;8.50;56.90
81222;DHT22;70691;52.492;13.420;2023-11-19T01:35:42;8.50;57.00
81222;DHT22;70691;52.492;13.420;2023-11-19T01:38:08;8.50;57.40
81222;DHT22;70691;52.492;13.420;2023-11-19T01:40:37;8.50;57.30
81222;DHT22;70691;52.492;13.420;2023-11-19T01:43:03;8.50;56.60
81222;DHT22;70691;52.492;13.420;2023-11-19T01:45:30;8.60;56.20
81222;DHT22;70691;52.492;13.420;2023-11-19T01:48:00;8.60;56.20
81222;DHT22;70691;52.492;13.420;2023-11-19T01:50:30;8.50;56.40
81222;DHT22;70691;52.492;13.420;2023-11-19T01:52:57;8.60;55.90
81222;DHT22;70691;52.492;13.420;2023-11-19T01:55:24;8.60;56.10
81222;DHT22;70691;52.492;13.420;2023-11-19T01:57:52;8.50;56.90
81222;DHT22;70691;52.492;13.420;2023-11-19T02:00:19;8.50;57.00
81222;DHT22;70691;52.492;13.420;2023-11-19T02:02:46;8.60;56.80
81222;DHT22;70691;52.492;13.420;2023-11-19T02:05:12;8.50;57.50
81222;DHT22;70691;52.492;13.420;2023-11-19T02:07:38;8.50;57.60
81222;DHT22;70691;52.492;13.420;2023-11-19T02:10:04;8.60;57.50
81222;DHT22;70691;52.492;13.420;2023-11-19T02:12:34;8.60;57.90
81222;DHT22;70691;52.492;13.420;2023-11-19T02:15:01;8.50;58.30
81222;DHT22;70691;52.492;13.420;2023-11-19T02:17:28;8.50;58.30
81222;DHT22;70691;52.492;13.420;2023-11-19T02:19:56;8.50;58.00
81222;DHT22;70691;52.492;13.420;2023-11-19T02:22:22;8.50;58.30
81222;DHT22;70691;52.492;13.420;2023-11-19T02:24:49;8.40;58.50
81222;DHT22;70691;52.492;13.420;2023-11-19T02:29:56;8.60;58.00
81222;DHT22;70691;52.492;13.420;2023-11-19T02:32:23;8.40;58.80
81222;DHT22;70691;52.492;13.420;2023-11-19T02:34:49;8.40;59.10
81222;DHT22;70691;52.492;13.420;2023-11-19T02:37:14;8.50;58.90
81222;DHT22;70691;52.492;13.420;2023-11-19T02:39:40;8.50;58.60
81222;DHT22;70691;52.492;13.420;2023-11-19T02:42:07;8.40;58.90
81222;DHT22;70691;52.492;13.420;2023-11-19T02:44:33;8.60;58.40
81222;DHT22;70691;52.492;13.420;2023-11-19T02:46:59;8.60;58.50
81222;DHT22;70691;52.492;13.420;2023-11-19T02:49:25;8.60;58.10
81222;DHT22;70691;52.492;13.420;2023-11-19T02:51:51;8.50;58.40
81222;DHT22;70691;52.492;13.420;2023-11-19T02:54:17;8.50;58.70
81222;DHT22;70691;52.492;13.420;2023-11-19T02:56:43;8.60;58.50
81222;DHT22;70691;52.492;13.420;2023-11-19T02:59:08;8.60;58.10
81222;DHT22;70691;52.492;13.420;2023-11-19T03:01:43;8.60;58.10
81222;DHT22;70691;52.492;13.420;2023-11-19T03:04:15;8.60;58.10
81222;DHT22;70691;52.492;13.420;2023-11-19T03:06:42;8.60;58.10
81222;DHT22;70691;52.492;13.420;2023-11-19T03:09:08;8.60;59.00
81222;DHT22;70691;52.492;13.420;2023-11-19T03:11:36;8.50;58.90
81222;DHT22;70691;52.492;13.420;2023-11-19T03:14:01;8.60;58.40
81222;DHT22;70691;52.492;13.420;2023-11-19T03:16:28;8.50;59.00
81222;DHT22;70691;52.492;13.420;2023-11-19T03:18:54;8.50;58.90
81222;DHT22;70691;52.492;13.420;2023-11-19T03:21:29;8.50;59.30
81222;DHT22;70691;52.492;13.420;2023-11-19T03:23:57;8.70;58.60
81222;DHT22;70691;52.492;13.420;2023-11-19T03:26:26;8.60;58.60
81222;DHT22;70691;52.492;13.420;2023-11-19T03:28:52;8.60;58.30
81222;DHT22;70691;52.492;13.420;2023-11-19T03:31:18;8.70;58.00
81222;DHT22;70691;52.492;13.420;2023-11-19T03:33:44;8.70;58.30
81222;DHT22;70691;52.492;13.420;2023-11-19T03:36:10;8.70;58.60
81222;DHT22;70691;52.492;13.420;2023-11-19T03:38:36;8.60;59.70
81222;DHT22;70691;52.492;13.420;2023-11-19T03:41:13;8.60;60.10
81222;DHT22;70691;52.492;13.420;2023-11-19T03:43:39;8.60;60.70
81222;DHT22;70691;52.492;13.420;2023-11-19T03:46:19;8.60;61.40
81222;DHT22;70691;52.492;13.420;2023-11-19T03:48:46;8.60;62.00
81222;DHT22;70691;52.492;13.420;2023-11-19T03:51:12;8.60;62.50
81222;DHT22;70691;52.492;13.420;2023-11-19T03:53:44;8.60;63.20
81222;DHT22;70691;52.492;13.420;2023-11-19T03:56:11;8.60;64.00
81222;DHT22;70691;52.492;13.420;2023-11-19T03:58:37;8.50;64.00
81222;DHT22;70691;52.492;13.420;2023-11-19T04:01:22;8.50;64.90
81222;DHT22;70691;52.492;13.420;2023-11-19T04:03:47;8.50;64.60
81222;DHT22;70691;52.492;13.420;2023-11-19T04:06:13;8.50;64.90
81222;DHT22;70691;52.492;13.420;2023-11-19T04:08:39;8.50;65.20
81222;DHT22;70691;52.492;13.420;2023-11-19T04:11:04;8.50;65.40
81222;DHT22;70691;52.492;13.420;2023-11-19T04:13:31;8.50;65.30
81222;DHT22;70691;52.492;13.420;2023-11-19T04:15:56;8.50;65.50
81222;DHT22;70691;52.492;13.420;2023-11-19T04:18:22;8.40;65.70
81222;DHT22;70691;52.492;13.420;2023-11-19T04:20:47;8.30;66.60
81222;DHT22;70691;52.492;13.420;2023-11-19T04:23:13;8.30;66.40
81222;DHT22;70691;52.492;13.420;2023-11-19T04:25:39;8.40;65.50
81222;DHT22;70691;52.492;13.420;2023-11-19T04:28:04;8.40;65.20
81222;DHT22;70691;52.492;13.420;2023-11-19T04:30:30;8.40;65.80
81222;DHT22;70691;52.492;13.420;2023-11-19T04:32:57;8.30;66.50
81222;DHT22;70691;52.492;13.420;2023-11-19T04:35:23;8.30;66.40
81222;DHT22;70691;52.492;13.420;2023-11-19T04:37:49;8.30;66.30
81222;DHT22;70691;52.492;13.420;2023-11-19T04:40:14;8.30;66.30
81222;DHT22;70691;52.492;13.420;2023-11-19T04:42:40;8.30;66.60
81222;DHT22;70691;52.492;13.420;2023-11-19T04:45:06;8.30;66.40
81222;DHT22;70691;52.492;13.420;2023-11-19T04:47:33;8.30;67.20
81222;DHT22;70691;52.492;13.420;2023-11-19T04:49:59;8.20;67.80
81222;DHT22;70691;52.492;13.420;2023-11-19T04:52:25;8.30;67.50
81222;DHT22;70691;52.492;13.420;2023-11-19T04:54:51;8.40;67.10
81222;DHT22;70691;52.492;13.420;2023-11-19T04:57:17;8.40;66.90
81222;DHT22;70691;52.492;13.420;2023-11-19T04:59:43;8.40;67.80
81222;DHT22;70691;52.492;13.420;2023-11-19T05:02:09;8.30;68.00
81222;DHT22;70691;52.492;13.420;2023-11-19T05:04:35;8.40;67.90
81222;DHT22;70691;52.492;13.420;2023-11-19T05:07:00;8.40;67.90
81222;DHT22;70691;52.492;13.420;2023-11-19T05:09:26;8.40;67.80
81222;DHT22;70691;52.492;13.420;2023-11-19T05:11:52;8.40;67.90
81222;DHT22;70691;52.492;13.420;2023-11-19T05:14:17;8.30;68.70
81222;DHT22;70691;52.492;13.420;2023-11-19T05:16:47;8.20;69.60
81222;DHT22;70691;52.492;13.420;2023-11-19T05:19:13;8.20;69.90
81222;DHT22;70691;52.492;13.420;2023-11-19T05:21:44;8.20;69.90
81222;DHT22;70691;52.492;13.420;2023-11-19T05:24:10;8.30;70.60
81222;DHT22;70691;52.492;13.420;2023-11-19T05:26:37;8.30;69.20
81222;DHT22;70691;52.492;13.420;2023-11-19T05:29:03;8.40;68.90
81222;DHT22;70691;52.492;13.420;2023-11-19T05:31:30;8.30;69.50
81222;DHT22;70691;52.492;13.420;2023-11-19T05:33:55;8.20;70.10
81222;DHT22;70691;52.492;13.420;2023-11-19T05:36:21;8.30;69.90
81222;DHT22;70691;52.492;13.420;2023-11-19T05:38:46;8.20;70.30
81222;DHT22;70691;52.492;13.420;2023-11-19T05:41:12;8.20;70.10
81222;DHT22;70691;52.492;13.420;2023-11-19T05:43:38;8.30;69.90
81222;DHT22;70691;52.492;13.420;2023-11-19T05:46:05;8.30;69.80
81222;DHT22;70691;52.492;13.420;2023-11-19T05:48:32;8.30;70.00
81222;DHT22;70691;52.492;13.420;2023-11-19T05:50:57;8.40;69.50
81222;DHT22;70691;52.492;13.420;2023-11-19T05:53:23;8.40;69.10
81222;DHT22;70691;52.492;13.420;2023-11-19T05:55:48;8.40;69.10
81222;DHT22;70691;52.492;13.420;2023-11-19T05:58:24;8.40;69.30
81222;DHT22;70691;52.492;13.420;2023-11-19T06:00:51;8.30;69.90
81222;DHT22;70691;52.492;13.420;2023-11-19T06:03:17;8.30;70.30
81222;DHT22;70691;52.492;13.420;2023-11-19T06:05:45;8.30;70.30
81222;DHT22;70691;52.492;13.420;2023-11-19T06:08:11;8.30;70.10
81222;DHT22;70691;52.492;13.420;2023-11-19T06:10:39;8.30;70.30
81222;DHT22;70691;52.492;13.420;2023-11-19T06:13:05;8.20;70.60
81222;DHT22;70691;52.492;13.420;2023-11-19T06:15:31;8.30;70.30
81222;DHT22;70691;52.492;13.420;2023-11-19T06:17:58;8.40;70.40
81222;DHT22;70691;52.492;13.420;2023-11-19T06:20:25;8.40;70.10
81222;DHT22;70691;52.492;13.420;2023-11-19T06:22:53;8.50;69.20
81222;DHT22;70691;52.492;13.420;2023-11-19T06:25:18;8.40;69.80
81222;DHT22;70691;52.492;13.420;2023-11-19T06:27:44;8.50;69.50
81222;DHT22;70691;52.492;13.420;2023-11-19T06:30:10;8.50;69.00
81222;DHT22;70691;52.492;13.420;2023-11-19T06:32:37;8.40;69.70
81222;DHT22;70691;52.492;13.420;2023-11-19T06:35:03;8.50;69.00
81222;DHT22;70691;52.492;13.420;2023-11-19T06:37:30;8.50;69.60
81222;DHT22;70691;52.492;13.420;2023-11-19T06:39:56;8.40;69.90
81222;DHT22;70691;52.492;13.420;2023-11-19T06:42:21;8.40;70.00
81222;DHT22;70691;52.492;13.420;2023-11-19T06:44:47;8.30;70.80
81222;DHT22;70691;52.492;13.420;2023-11-19T06:47:13;8.40;70.40
81222;DHT22;70691;52.492;13.420;2023-11-19T06:49:38;8.50;70.20
81222;DHT22;70691;52.492;13.420;2023-11-19T06:52:04;8.50;70.00
81222;DHT22;70691;52.492;13.420;2023-11-19T06:54:30;8.50;70.40
81222;DHT22;70691;52.492;13.420;2023-11-19T06:56:56;8.40;70.60
81222;DHT22;70691;52.492;13.420;2023-11-19T06:59:23;8.40;70.70
81222;DHT22;70691;52.492;13.420;2023-11-19T07:01:48;8.30;71.10
81222;DHT22;70691;52.492;13.420;2023-11-19T07:04:14;8.40;71.10
81222;DHT22;70691;52.492;13.420;2023-11-19T07:06:40;8.40;71.60
81222;DHT22;70691;52.492;13.420;2023-11-19T07:09:08;8.50;71.10
81222;DHT22;70691;52.492;13.420;2023-11-19T07:11:41;8.60;70.50
81222;DHT22;70691;52.492;13.420;2023-11-19T07:14:08;8.70;69.90
81222;DHT22;70691;52.492;13.420;2023-11-19T07:16:34;8.60;70.00
81222;DHT22;70691;52.492;13.420;2023-11-19T07:19:03;8.60;70.70
81222;DHT22;70691;52.492;13.420;2023-11-19T07:21:28;8.60;71.10
81222;DHT22;70691;52.492;13.420;2023-11-19T07:23:57;8.50;71.30
81222;DHT22;70691;52.492;13.420;2023-11-19T07:26:23;8.50;71.40
81222;DHT22;70691;52.492;13.420;2023-11-19T07:28:49;8.60;71.50
81222;DHT22;70691;52.492;13.420;2023-11-19T07:31:15;8.60;71.70
81222;DHT22;70691;52.492;13.420;2023-11-19T07:33:41;8.60;71.70
81222;DHT22;70691;52.492;13.420;2023-11-19T07:36:10;8.70;71.40
81222;DHT22;70691;52.492;13.420;2023-11-19T07:38:36;8.70;71.30
81222;DHT22;70691;52.492;13.420;2023-11-19T07:41:02;8.80;71.80
81222;DHT22;70691;52.492;13.420;2023-11-19T07:43:28;8.80;70.20
81222;DHT22;70691;52.492;13.420;2023-11-19T07:45:53;8.80;70.70
81222;DHT22;70691;52.492;13.420;2023-11-19T07:48:19;8.60;71.10
81222;DHT22;70691;52.492;13.420;2023-11-19T07:50:52;8.60;72.10
81222;DHT22;70691;52.492;13.420;2023-11-19T07:53:19;8.70;72.30
81222;DHT22;70691;52.492;13.420;2023-11-19T07:55:45;8.70;72.20
81222;DHT22;70691;52.492;13.420;2023-11-19T07:58:11;8.80;72.30
81222;DHT22;70691;52.492;13.420;2023-11-19T08:00:37;8.80;71.70
81222;DHT22;70691;52.492;13.420;2023-11-19T08:03:03;8.90;71.40
81222;DHT22;70691;52.492;13.420;2023-11-19T08:05:30;8.90;71.50
81222;DHT22;70691;52.492;13.420;2023-11-19T08:07:56;8.90;71.50
81222;DHT22;70691;52.492;13.420;2023-11-19T08:10:21;8.90;71.70
81222;DHT22;70691;52.492;13.420;2023-11-19T08:12:48;9.00;71.80
81222;DHT22;70691;52.492;13.420;2023-11-19T08:15:14;9.10;71.10
81222;DHT22;70691;52.492;13.420;2023-11-19T08:17:39;9.20;71.30
81222;DHT22;70691;52.492;13.420;2023-11-19T08:20:06;9.10;71.40
81222;DHT22;70691;52.492;13.420;2023-11-19T08:22:36;9.20;71.30
81222;DHT22;70691;52.492;13.420;2023-11-19T08:25:02;9.20;71.90
81222;DHT22;70691;52.492;13.420;2023-11-19T08:27:28;9.20;71.80
81222;DHT22;70691;52.492;13.420;2023-11-19T08:29:54;9.30;71.50
81222;DHT22;70691;52.492;13.420;2023-11-19T08:32:24;9.30;71.70
81222;DHT22;70691;52.492;13.420;2023-11-19T08:34:49;9.30;71.70
81222;DHT22;70691;52.492;13.420;2023-11-19T08:37:15;9.40;72.10
81222;DHT22;70691;52.492;13.420;2023-11-19T08:39:43;9.50;71.50
81222;DHT22;70691;52.492;13.420;2023-11-19T08:42:09;9.60;71.10
81222;DHT22;70691;52.492;13.420;2023-11-19T08:44:35;9.70;71.40
81222;DHT22;70691;52.492;13.420;2023-11-19T08:47:00;9.60;71.60
81222;DHT22;70691;52.492;13.420;2023-11-19T08:49:26;9.60;71.70
81222;DHT22;70691;52.492;13.420;2023-11-19T08:51:52;9.70;72.10
81222;DHT22;70691;52.492;13.420;2023-11-19T08:54:17;9.70;72.30
81222;DHT22;70691;52.492;13.420;2023-11-19T08:56:43;9.80;72.00
81222;DHT22;70691;52.492;13.420;2023-11-19T08:59:08;9.90;72.20
81222;DHT22;70691;52.492;13.420;2023-11-19T09:01:34;10.00;71.80
81222;DHT22;70691;52.492;13.420;2023-11-19T09:04:00;10.00;71.80
81222;DHT22;70691;52.492;13.420;2023-11-19T09:06:25;10.20;71.40
81222;DHT22;70691;52.492;13.420;2023-11-19T09:08:51;10.10;71.30
81222;DHT22;70691;52.492;13.420;2023-11-19T09:11:17;10.10;71.60
81222;DHT22;70691;52.492;13.420;2023-11-19T09:13:43;10.20;71.60
81222;DHT22;70691;52.492;13.420;2023-11-19T09:16:11;10.30;71.80
81222;DHT22;70691;52.492;13.420;2023-11-19T09:18:37;10.40;71.70
81222;DHT22;70691;52.492;13.420;2023-11-19T09:21:03;10.40;71.00
81222;DHT22;70691;52.492;13.420;2023-11-19T09:23:28;10.60;71.00
81222;DHT22;70691;52.492;13.420;2023-11-19T09:25:58;10.70;71.20
81222;DHT22;70691;52.492;13.420;2023-11-19T09:28:23;10.70;71.30
81222;DHT22;70691;52.492;13.420;2023-11-19T09:30:49;10.80;71.30
81222;DHT22;70691;52.492;13.420;2023-11-19T09:33:14;11.00;71.20
81222;DHT22;70691;52.492;13.420;2023-11-19T09:35:40;11.20;70.40
81222;DHT22;70691;52.492;13.420;2023-11-19T09:38:06;11.30;70.20
81222;DHT22;70691;52.492;13.420;2023-11-19T09:40:31;11.50;69.60
81222;DHT22;70691;52.492;13.420;2023-11-19T09:42:57;11.60;69.50
81222;DHT22;70691;52.492;13.420;2023-11-19T09:45:26;11.70;69.10
81222;DHT22;70691;52.492;13.420;2023-11-19T09:47:53;11.80;68.80
81222;DHT22;70691;52.492;13.420;2023-11-19T09:50:20;11.70;69.40
81222;DHT22;70691;52.492;13.420;2023-11-19T09:52:47;11.60;69.90
81222;DHT22;70691;52.492;13.420;2023-11-19T09:55:13;11.70;70.40
81222;DHT22;70691;52.492;13.420;2023-11-19T09:57:40;11.70;71.00
81222;DHT22;70691;52.492;13.420;2023-11-19T10:00:07;11.80;71.00
81222;DHT22;70691;52.492;13.420;2023-11-19T10:02:35;11.90;70.90
81222;DHT22;70691;52.492;13.420;2023-11-19T10:05:06;12.00;71.00
81222;DHT22;70691;52.492;13.420;2023-11-19T10:07:35;12.10;70.90
81222;DHT22;70691;52.492;13.420;2023-11-19T10:10:02;12.20;70.80
81222;DHT22;70691;52.492;13.420;2023-11-19T10:12:29;12.30;70.60
81222;DHT22;70691;52.492;13.420;2023-11-19T10:14:58;12.30;70.60
81222;DHT22;70691;52.492;13.420;2023-11-19T10:17:28;12.30;70.70
81222;DHT22;70691;52.492;13.420;2023-11-19T10:19:55;12.20;70.80
81222;DHT22;70691;52.492;13.420;2023-11-19T10:22:23;12.10;71.20
81222;DHT22;70691;52.492;13.420;2023-11-19T10:24:49;12.10;71.80
81222;DHT22;70691;52.492;13.420;2023-11-19T10:27:15;12.20;72.30
81222;DHT22;70691;52.492;13.420;2023-11-19T10:29:47;12.20;72.00
81222;DHT22;70691;52.492;13.420;2023-11-19T10:32:13;12.30;71.80
81222;DHT22;70691;52.492;13.420;2023-11-19T10:34:40;12.40;71.90
81222;DHT22;70691;52.492;13.420;2023-11-19T10:37:07;12.50;71.60
81222;DHT22;70691;52.492;13.420;2023-11-19T10:39:51;12.70;71.10
81222;DHT22;70691;52.492;13.420;2023-11-19T10:42:18;12.70;70.70
81222;DHT22;70691;52.492;13.420;2023-11-19T10:44:44;12.80;71.20
81222;DHT22;70691;52.492;13.420;2023-11-19T10:47:10;13.00;71.20
81222;DHT22;70691;52.492;13.420;2023-11-19T10:49:37;13.20;70.40
81222;DHT22;70691;52.492;13.420;2023-11-19T10:52:05;13.20;70.10
81222;DHT22;70691;52.492;13.420;2023-11-19T10:54:34;13.40;69.70
81222;DHT22;70691;52.492;13.420;2023-11-19T10:57:01;13.50;69.60
81222;DHT22;70691;52.492;13.420;2023-11-19T10:59:30;13.60;69.40
81222;DHT22;70691;52.492;13.420;2023-11-19T11:02:03;13.60;69.00
81222;DHT22;70691;52.492;13.420;2023-11-19T11:04:33;13.80;68.80
81222;DHT22;70691;52.492;13.420;2023-11-19T11:07:05;13.90;68.20
81222;DHT22;70691;52.492;13.420;2023-11-19T11:09:32;13.90;67.40
81222;DHT22;70691;52.492;13.420;2023-11-19T11:11:59;13.80;67.70
81222;DHT22;70691;52.492;13.420;2023-11-19T11:14:26;13.80;67.70
81222;DHT22;70691;52.492;13.420;2023-11-19T11:16:53;13.70;68.30
81222;DHT22;70691;52.492;13.420;2023-11-19T11:19:19;13.50;68.60
81222;DHT22;70691;52.492;13.420;2023-11-19T11:21:49;13.40;69.20
81222;DHT22;70691;52.492;13.420;2023-11-19T11:24:52;13.40;69.20
81222;DHT22;70691;52.492;13.420;2023-11-19T11:30:35;13.40;68.90
81222;DHT22;70691;52.492;13.420;2023-11-19T11:38:10;13.30;69.70
81222;DHT22;70691;52.492;13.420;2023-11-19T11:40:36;13.40;69.60
81222;DHT22;70691;52.492;13.420;2023-11-19T11:43:02;13.50;69.30
81222;DHT22;70691;52.492;13.420;2023-11-19T11:45:40;13.60;69.00
81222;DHT22;70691;52.492;13.420;2023-11-19T11:48:19;13.70;68.50
81222;DHT22;70691;52.492;13.420;2023-11-19T11:50:52;13.90;68.00
81222;DHT22;70691;52.492;13.420;2023-11-19T11:53:19;14.00;67.60
81222;DHT22;70691;52.492;13.420;2023-11-19T11:58:13;14.30;66.20
81222;DHT22;70691;52.492;13.420;2023-11-19T12:00:40;14.40;65.20
81222;DHT22;70691;52.492;13.420;2023-11-19T12:03:08;14.50;65.30
81222;DHT22;70691;52.492;13.420;2023-11-19T12:05:46;14.50;65.40
81222;DHT22;70691;52.492;13.420;2023-11-19T12:08:14;14.70;64.50
81222;DHT22;70691;52.492;13.420;2023-11-19T12:10:47;14.70;64.10
81222;DHT22;70691;52.492;13.420;2023-11-19T12:13:14;14.60;64.20
81222;DHT22;70691;52.492;13.420;2023-11-19T12:18:31;14.60;64.10
81222;DHT22;70691;52.492;13.420;2023-11-19T12:20:58;14.60;64.10
81222;DHT22;70691;52.492;13.420;2023-11-19T12:23:26;14.60;64.20
81222;DHT22;70691;52.492;13.420;2023-11-19T12:25:52;14.70;63.70
81222;DHT22;70691;52.492;13.420;2023-11-19T12:28:17;14.70;63.60
81222;DHT22;70691;52.492;13.420;2023-11-19T12:30:44;14.80;64.20
81222;DHT22;70691;52.492;13.420;2023-11-19T12:33:12;14.70;63.30
81222;DHT22;70691;52.492;13.420;2023-11-19T12:35:42;14.70;63.40
81222;DHT22;70691;52.492;13.420;2023-11-19T12:38:17;14.70;63.90
81222;DHT22;70691;52.492;13.420;2023-11-19T12:40:43;14.60;64.20
81222;DHT22;70691;52.492;13.420;2023-11-19T12:43:09;14.60;64.20
81222;DHT22;70691;52.492;13.420;2023-11-19T12:45:36;14.50;64.80
81222;DHT22;70691;52.492;13.420;2023-11-19T12:48:05;14.40;64.90
81222;DHT22;70691;52.492;13.420;2023-11-19T12:50:56;14.40;65.30
81222;DHT22;70691;52.492;13.420;2023-11-19T12:53:24;14.30;65.20
81222;DHT22;70691;52.492;13.420;2023-11-19T12:55:51;14.30;65.30
81222;DHT22;70691;52.492;13.420;2023-11-19T12:58:34;14.30;65.40
81222;DHT22;70691;52.492;13.420;2023-11-19T13:01:04;14.40;64.30
81222;DHT22;70691;52.492;13.420;2023-11-19T13:03:31;14.50;63.60
81222;DHT22;70691;52.492;13.420;2023-11-19T13:08:38;14.50;63.10
81222;DHT22;70691;52.492;13.420;2023-11-19T13:11:04;14.40;63.10
81222;DHT22;70691;52.492;13.420;2023-11-19T13:13:30;14.30;63.60
81222;DHT22;70691;52.492;13.420;2023-11-19T13:16:03;14.10;64.00
81222;DHT22;70691;52.492;13.420;2023-11-19T13:18:31;14.00;64.70
81222;DHT22;70691;52.492;13.420;2023-11-19T13:20:56;14.10;64.20
81222;DHT22;70691;52.492;13.420;2023-11-19T13:23:25;14.10;64.20
81222;DHT22;70691;52.492;13.420;2023-11-19T13:25:50;14.10;65.60
81222;DHT22;70691;52.492;13.420;2023-11-19T13:28:16;14.10;63.70
81222;DHT22;70691;52.492;13.420;2023-11-19T13:30:42;14.10;64.30
81222;DHT22;70691;52.492;13.420;2023-11-19T13:33:07;14.00;64.60
81222;DHT22;70691;52.492;13.420;2023-11-19T13:35:35;13.90;65.00
81222;DHT22;70691;52.492;13.420;2023-11-19T13:38:02;13.90;65.00
81222;DHT22;70691;52.492;13.420;2023-11-19T13:40:27;13.90;64.80
81222;DHT22;70691;52.492;13.420;2023-11-19T13:42:53;14.00;64.80
81222;DHT22;70691;52.492;13.420;2023-11-19T13:45:19;14.00;64.30
81222;DHT22;70691;52.492;13.420;2023-11-19T13:47:46;14.00;64.30
81222;DHT22;70691;52.492;13.420;2023-11-19T13:50:15;14.00;64.70
81222;DHT22;70691;52.492;13.420;2023-11-19T13:52:45;14.00;64.70
81222;DHT22;70691;52.492;13.420;2023-11-19T13:55:12;14.00;64.70
81222;DHT22;70691;52.492;13.420;2023-11-19T13:57:41;14.10;64.70
81222;DHT22;70691;52.492;13.420;2023-11-19T14:00:11;14.10;64.50
81222;DHT22;70691;52.492;13.420;2023-11-19T14:02:47;14.10;64.60
81222;DHT22;70691;52.492;13.420;2023-11-19T14:05:14;14.10;64.20
81222;DHT22;70691;52.492;13.420;2023-11-19T14:07:43;14.20;64.00
81222;DHT22;70691;52.492;13.420;2023-11-19T14:10:09;14.30;63.70
81222;DHT22;70691;52.492;13.420;2023-11-19T14:12:39;14.20;63.80
81222;DHT22;70691;52.492;13.420;2023-11-19T14:15:06;14.30;63.70
81222;DHT22;70691;52.492;13.420;2023-11-19T14:17:33;14.20;64.10
81222;DHT22;70691;52.492;13.420;2023-11-19T14:20:04;14.10;64.70
81222;DHT22;70691;52.492;13.420;2023-11-19T14:22:44;14.10;64.80
81222;DHT22;70691;52.492;13.420;2023-11-19T14:25:11;14.00;65.20
81222;DHT22;70691;52.492;13.420;2023-11-19T14:27:38;14.00;65.50
81222;DHT22;70691;52.492;13.420;2023-11-19T14:30:11;14.00;65.20
81222;DHT22;70691;52.492;13.420;2023-11-19T14:32:39;14.00;65.20
81222;DHT22;70691;52.492;13.420;2023-11-19T14:35:07;13.90;65.50
81222;DHT22;70691;52.492;13.420;2023-11-19T14:37:33;14.00;64.90
81222;DHT22;70691;52.492;13.420;2023-11-19T14:39:59;14.00;64.90
81222;DHT22;70691;52.492;13.420;2023-11-19T14:42:26;14.10;64.40
81222;DHT22;70691;52.492;13.420;2023-11-19T14:44:52;14.00;64.40
81222;DHT22;70691;52.492;13.420;2023-11-19T14:47:21;14.00;64.30
81222;DHT22;70691;52.492;13.420;2023-11-19T14:49:47;14.00;64.30
81222;DHT22;70691;52.492;13.420;2023-11-19T14:52:13;14.00;64.20
81222;DHT22;70691;52.492;13.420;2023-11-19T14:54:38;14.00;64.30
81222;DHT22;70691;52.492;13.420;2023-11-19T14:57:05;14.00;64.30
81222;DHT22;70691;52.492;13.420;2023-11-19T14:59:32;13.90;64.20
81222;DHT22;70691;52.492;13.420;2023-11-19T15:01:58;14.00;63.30
81222;DHT22;70691;52.492;13.420;2023-11-19T15:04:25;13.90;63.60
81222;DHT22;70691;52.492;13.420;2023-11-19T15:06:50;14.00;63.50
81222;DHT22;70691;52.492;13.420;2023-11-19T15:09:16;13.80;64.00
81222;DHT22;70691;52.492;13.420;2023-11-19T15:11:46;13.80;64.30
81222;DHT22;70691;52.492;13.420;2023-11-19T15:14:12;13.90;64.60
81222;DHT22;70691;52.492;13.420;2023-11-19T15:16:42;13.90;65.10
81222;DHT22;70691;52.492;13.420;2023-11-19T15:19:08;13.80;65.40
81222;DHT22;70691;52.492;13.420;2023-11-19T15:21:34;13.80;65.70
81222;DHT22;70691;52.492;13.420;2023-11-19T15:24:00;13.80;65.70
81222;DHT22;70691;52.492;13.420;2023-11-19T15:26:27;13.80;65.80
81222;DHT22;70691;52.492;13.420;2023-11-19T15:28:53;13.70;65.80
81222;DHT22;70691;52.492;13.420;2023-11-19T15:31:22;13.60;66.00
81222;DHT22;70691;52.492;13.420;2023-11-19T15:33:48;13.60;66.20
81222;DHT22;70691;52.492;13.420;2023-11-19T15:36:13;13.60;66.30
81222;DHT22;70691;52.492;13.420;2023-11-19T15:38:40;13.50;66.50
81222;DHT22;70691;52.492;13.420;2023-11-19T15:41:05;13.50;66.40
81222;DHT22;70691;52.492;13.420;2023-11-19T15:43:33;13.40;66.70